createdAt,value
2022-09-13T00:01:33.007Z,6.36
2022-09-13T00:11:36.815Z,6.06
2022-09-13T00:21:43.368Z,6.20
2022-09-13T00:31:58.674Z,5.49
2022-09-13T00:53:12.886Z,5.02
2022-09-13T01:14:01.880Z,6.02
2022-09-13T01:24:43.289Z,6.06
2022-09-13T01:56:34.309Z,4.39
2022-09-13T02:06:59.374Z,4.74
2022-09-13T02:38:11.338Z,3.11
2022-09-13T04:03:01.150Z,12.21
2022-09-13T04:34:23.590Z,14.94
2022-09-13T04:45:04.357Z,14.66
2022-09-13T04:55:14.750Z,15.14
2022-09-13T05:05:23.346Z,15.39
2022-09-13T05:15:27.916Z,15.77
2022-09-13T05:25:42.795Z,16.07
2022-09-13T05:35:54.707Z,16.36
2022-09-13T05:46:26.281Z,16.41
2022-09-13T05:56:36.327Z,16.61
2022-09-13T06:06:44.374Z,16.42
2022-09-13T06:16:53.736Z,16.41
2022-09-13T06:26:59.227Z,15.83
2022-09-13T06:37:05.689Z,15.66
2022-09-13T06:47:16.035Z,14.76
2022-09-13T06:57:20.979Z,13.98
2022-09-13T07:07:30.359Z,13.13
2022-09-13T07:17:36.559Z,13.63
2022-09-13T07:27:45.606Z,14.00
2022-09-13T07:37:49.943Z,14.05
2022-09-13T07:48:01.178Z,13.87
2022-09-13T07:58:06.941Z,13.18
2022-09-13T08:08:12.637Z,13.21
2022-09-13T08:18:16.706Z,13.47
2022-09-13T08:28:27.306Z,13.70
2022-09-13T08:38:34.243Z,14.54
2022-09-13T08:48:50.501Z,14.15
2022-09-13T08:59:14.449Z,15.03
2022-09-13T09:09:22.119Z,14.73
2022-09-13T09:19:33.715Z,15.19
2022-09-13T09:29:40.574Z,15.24
2022-09-13T09:39:45.358Z,15.53
2022-09-13T09:50:10.968Z,15.45
2022-09-13T10:00:16.007Z,15.12
2022-09-13T10:10:25.232Z,15.46
2022-09-13T10:20:28.383Z,15.52
2022-09-13T10:30:37.757Z,16.00
2022-09-13T10:40:40.843Z,15.79
2022-09-13T10:51:02.138Z,16.28
2022-09-13T11:01:34.864Z,16.10
2022-09-13T11:11:51.353Z,16.32
2022-09-13T11:22:10.404Z,15.84
2022-09-13T11:32:31.411Z,16.12
2022-09-13T11:42:44.511Z,16.11
2022-09-13T11:53:03.050Z,16.22
2022-09-13T12:03:15.645Z,15.93
2022-09-13T12:13:24.688Z,15.73
2022-09-13T12:23:33.371Z,15.43
2022-09-13T12:33:41.623Z,15.36
2022-09-13T12:44:16.892Z,15.35
2022-09-13T12:54:40.454Z,15.65
2022-09-13T13:04:53.559Z,15.59
2022-09-13T13:14:59.406Z,15.02
2022-09-13T13:25:31.427Z,14.70
2022-09-13T13:35:36.130Z,14.25
2022-09-13T13:45:39.394Z,14.50
2022-09-13T13:55:49.518Z,14.59
2022-09-13T14:06:16.556Z,13.89
2022-09-13T14:17:05.761Z,13.56
2022-09-13T14:38:25.460Z,13.58
2022-09-13T14:48:39.599Z,13.23
2022-09-13T14:58:47.680Z,12.91
2022-09-13T15:08:54.837Z,11.81
2022-09-13T15:19:28.116Z,11.53
2022-09-13T15:29:36.606Z,11.77
2022-09-13T15:39:48.206Z,12.33
2022-09-13T15:49:52.710Z,12.44
2022-09-13T16:00:02.649Z,12.32
2022-09-13T16:10:17.328Z,12.29
2022-09-13T16:20:22.144Z,12.36
2022-09-13T16:30:25.517Z,12.30
2022-09-13T16:40:30.053Z,11.95
2022-09-13T16:50:35.124Z,11.79
2022-09-13T17:00:55.191Z,11.55
2022-09-13T17:11:01.213Z,11.23
2022-09-13T17:21:06.161Z,10.37
2022-09-13T17:31:09.626Z,10.31
2022-09-13T17:41:20.075Z,10.21
2022-09-13T17:51:24.528Z,10.69
2022-09-13T18:01:29.264Z,10.42
2022-09-13T18:11:33.105Z,10.83
2022-09-13T18:21:54.750Z,10.42
2022-09-13T18:32:01.491Z,10.66
2022-09-13T18:42:07.012Z,9.89
2022-09-13T18:52:11.337Z,10.45
2022-09-13T20:19:50.438Z,9.18
2022-09-13T20:40:38.393Z,9.84
2022-09-13T21:11:56.403Z,10.50
2022-09-13T21:22:04.537Z,10.41
2022-09-13T21:32:12.784Z,9.60
2022-09-13T21:42:20.737Z,10.16
2022-09-13T21:52:27.799Z,10.41
2022-09-13T22:02:32.213Z,11.11
2022-09-13T22:12:38.062Z,10.11
2022-09-13T22:22:42.267Z,9.78
2022-09-13T22:32:49.882Z,9.70
2022-09-13T22:42:53.699Z,10.48
2022-09-13T22:52:58.394Z,10.68
2022-09-13T23:03:01.520Z,10.53
2022-09-13T23:13:06.072Z,10.54
2022-09-13T23:23:11.444Z,10.35
2022-09-13T23:33:17.835Z,10.38
2022-09-13T23:43:21.443Z,10.31
2022-09-13T23:53:26.948Z,9.94
